Time;durP1;ratioP1;P1;durP2;ratioP2;P2;SDS_P1;SDS_P2;PMS_P1;PMS_P2;Temp;Humidity;BMP_temperature;BMP_pressure;BME280_temperature;BME280_humidity;BME280_pressure;Samples;Min_cycle;Max_cycle;Signal;HPM_P1;HPM_P2
2022/04/22 00:03:38;;;;;;;22.42;17.20;;;;;;;11.06;100.00;100119.22;4445202;28;10000318;-71
2022/04/22 00:06:04;;;;;;;18.42;16.60;;;;;;;10.98;100.00;100082.97;5050747;28;20038;-71
2022/04/22 00:08:30;;;;;;;19.27;16.92;;;;;;;10.48;100.00;100019.97;5051251;28;20035;-72
2022/04/22 00:13:39;;;;;;;18.40;16.42;;;;;;;10.85;100.00;100113.00;5069301;28;20097;-71
2022/04/22 00:16:06;;;;;;;18.70;16.60;;;;;;;10.83;100.00;100112.22;5070984;28;20036;-71
2022/04/22 00:18:33;;;;;;;18.77;16.85;;;;;;;10.68;100.00;100081.25;5069778;28;20039;-71
2022/04/22 00:20:58;;;;;;;18.00;16.10;;;;;;;10.98;100.00;100121.97;5070888;28;20113;-70
2022/04/22 00:23:26;;;;;;;18.33;16.42;;;;;;;10.92;100.00;100116.19;5070488;28;20067;-71
2022/04/22 00:25:53;;;;;;;18.02;15.93;;;;;;;10.79;100.00;100059.78;5069742;28;20518;-70
2022/04/22 00:28:18;;;;;;;17.63;15.82;;;;;;;10.73;100.00;100067.56;5069784;28;20020;-71
2022/04/22 00:30:44;;;;;;;17.77;15.35;;;;;;;10.51;100.00;100053.75;5070771;28;20050;-71
2022/04/22 00:33:10;;;;;;;16.30;14.45;;;;;;;10.70;100.00;100082.88;5070841;28;20032;-71
2022/04/22 00:35:35;;;;;;;16.33;14.55;;;;;;;10.90;100.00;100113.72;5070755;28;20029;-71
2022/04/22 00:38:00;;;;;;;17.52;14.70;;;;;;;10.99;100.00;100112.63;5068944;28;20624;-71
2022/04/22 00:40:26;;;;;;;16.35;14.68;;;;;;;11.12;100.00;100101.22;5069494;28;20037;-70
2022/04/22 00:42:51;;;;;;;16.67;14.55;;;;;;;10.95;100.00;100114.41;5070799;28;20535;-71
2022/04/22 00:45:19;;;;;;;19.45;15.90;;;;;;;10.54;100.00;100046.03;5070590;28;20034;-71
2022/04/22 00:47:45;;;;;;;17.42;15.73;;;;;;;10.86;100.00;100107.03;5070290;28;20036;-71
2022/04/22 00:50:11;;;;;;;19.15;15.98;;;;;;;10.83;100.00;100111.38;5073408;28;20035;-71
2022/04/22 00:52:37;;;;;;;17.08;15.30;;;;;;;10.96;100.00;100103.38;5074224;28;20115;-70
2022/04/22 00:55:03;;;;;;;19.50;15.98;;;;;;;11.36;100.00;100108.16;5073376;28;20511;-71
2022/04/22 00:57:31;;;;;;;18.70;16.63;;;;;;;10.78;100.00;100072.50;5074613;28;20074;-71
2022/04/22 00:59:57;;;;;;;18.27;16.40;;;;;;;10.93;100.00;100077.19;5074375;28;20028;-71
2022/04/22 01:02:22;;;;;;;18.58;16.67;;;;;;;11.05;100.00;100104.84;5074542;28;20371;-71
2022/04/22 01:10:15;;;;;;;18.65;16.73;;;;;;;10.89;100.00;100081.53;5074054;28;20572;-71
2022/04/22 01:12:41;;;;;;;22.02;19.83;;;;;;;10.98;100.00;100111.78;5074401;28;20470;-71
2022/04/22 01:15:07;;;;;;;20.58;18.48;;;;;;;10.97;100.00;100099.13;5074202;28;20085;-72
2022/04/22 01:17:32;;;;;;;20.50;18.40;;;;;;;10.70;100.00;100103.22;5073681;28;20054;-71
2022/04/22 01:19:58;;;;;;;19.52;17.52;;;;;;;10.98;100.00;100100.78;5072786;28;20559;-71
2022/04/22 01:22:24;;;;;;;22.05;19.35;;;;;;;10.65;100.00;100036.44;5074198;28;20031;-71
2022/04/22 01:24:53;;;;;;;21.75;18.63;;;;;;;10.68;100.00;100046.50;5073744;28;20020;-72
2022/04/22 01:27:19;;;;;;;20.20;17.33;;;;;;;10.87;100.00;100085.84;5074119;28;20547;-70
2022/04/22 01:29:44;;;;;;;18.25;16.13;;;;;;;10.65;100.00;100086.44;5073749;28;20056;-71
2022/04/22 01:32:10;;;;;;;22.17;19.77;;;;;;;10.44;100.00;100086.13;5072461;28;20147;-72
2022/04/22 01:34:37;;;;;;;26.52;22.13;;;;;;;10.51;100.00;100081.72;5074028;28;20032;-71
2022/04/22 01:37:03;;;;;;;20.98;18.75;;;;;;;10.29;100.00;100086.53;5073532;28;20029;-72
2022/04/22 01:39:30;;;;;;;19.25;17.17;;;;;;;10.00;100.00;100007.63;5073733;28;20101;-71
2022/04/22 01:41:55;;;;;;;17.67;15.88;;;;;;;10.08;100.00;100023.50;5074071;28;20111;-71
2022/04/22 01:44:21;;;;;;;19.10;16.50;;;;;;;9.83;100.00;100002.13;5073494;28;20055;-71
2022/04/22 01:46:46;;;;;;;22.45;17.40;;;;;;;9.59;100.00;99995.13;5073524;28;20040;-71
2022/04/22 01:49:11;;;;;;;21.90;19.50;;;;;;;9.93;100.00;100045.91;5073743;28;20090;-71
2022/04/22 01:51:37;;;;;;;22.35;20.05;;;;;;;9.66;100.00;100004.25;5073323;28;20048;-71
2022/04/22 01:54:03;;;;;;;22.15;19.55;;;;;;;10.13;100.00;100034.44;5073630;28;20024;-72
2022/04/22 01:56:28;;;;;;;23.58;20.52;;;;;;;9.69;100.00;99961.03;5072333;28;20039;-71
2022/04/22 01:58:54;;;;;;;25.00;21.30;;;;;;;9.98;100.00;99978.88;5073102;28;20039;-71
2022/04/22 02:01:20;;;;;;;23.25;20.83;;;;;;;9.88;100.00;99954.63;5073290;28;20032;-71
2022/04/22 02:03:45;;;;;;;23.52;21.05;;;;;;;9.45;100.00;99895.66;5073560;28;20052;-71
2022/04/22 02:06:10;;;;;;;22.63;20.33;;;;;;;9.34;100.00;99925.53;5071584;28;20033;-71
2022/04/22 02:08:36;;;;;;;23.05;20.55;;;;;;;9.01;100.00;99894.19;5072219;28;20024;-71
2022/04/22 02:11:02;;;;;;;21.92;19.63;;;;;;;8.92;100.00;99863.13;5072889;28;20413;-72
2022/04/22 02:13:28;;;;;;;23.05;20.65;;;;;;;9.37;100.00;99955.88;5073148;28;20029;-71
2022/04/22 02:15:53;;;;;;;25.17;21.30;;;;;;;9.58;100.00;99976.53;5071401;28;20035;-71
2022/04/22 02:18:19;;;;;;;22.85;20.52;;;;;;;9.78;100.00;99975.19;5072498;28;20075;-70
2022/04/22 02:20:44;;;;;;;23.45;21.05;;;;;;;9.75;100.00;99975.25;5053437;28;20448;-71
2022/04/22 02:23:10;;;;;;;24.00;21.40;;;;;;;9.47;100.00;99926.88;5054326;28;20115;-71
2022/04/22 02:25:35;;;;;;;24.77;22.17;;;;;;;9.71;100.00;99981.28;5049279;28;20033;-71
2022/04/22 02:30:45;;;;;;;24.42;21.75;;;;;;;9.82;100.00;99964.94;5061787;28;20101;-70
2022/04/22 02:33:11;;;;;;;23.98;21.48;;;;;;;9.57;100.00;99915.66;5072803;28;20466;-70
2022/04/22 02:35:37;;;;;;;25.98;22.95;;;;;;;10.08;100.00;99975.25;5069381;28;20407;-70
2022/04/22 02:38:02;;;;;;;24.90;21.95;;;;;;;9.96;100.00;99982.38;5057554;28;20165;-70
2022/04/22 02:45:55;;;;;;;24.52;21.40;;;;;;;10.43;100.00;100013.31;5069673;28;20027;-70
2022/04/22 02:48:21;;;;;;;27.58;22.83;;;;;;;10.35;100.00;99979.66;5071932;28;20405;-72
2022/04/22 02:50:47;;;;;;;29.10;23.80;;;;;;;10.48;100.00;100012.34;5054128;28;20031;-70
2022/04/22 02:53:12;;;;;;;29.35;26.20;;;;;;;10.10;100.00;99958.28;5049742;28;20422;-70
2022/04/22 02:55:46;;;;;;;27.58;24.58;;;;;;;10.48;100.00;100008.09;5060267;28;20039;-70
2022/04/22 02:58:12;;;;;;;29.83;26.00;;;;;;;9.94;100.00;99916.38;5052319;28;20100;-70
2022/04/22 03:00:37;;;;;;;30.35;27.02;;;;;;;10.04;100.00;99963.50;5051764;28;20116;-72
2022/04/22 03:03:03;;;;;;;27.63;24.67;;;;;;;10.64;100.00;100018.66;5057291;28;20045;-70
2022/04/22 03:05:28;;;;;;;29.45;26.35;;;;;;;10.22;100.00;100001.16;5052185;28;20029;-70
2022/04/22 03:07:54;;;;;;;28.85;25.85;;;;;;;10.31;100.00;100010.25;5051253;28;20037;-70
2022/04/22 03:10:19;;;;;;;27.27;24.23;;;;;;;10.01;100.00;99953.44;5049474;28;20037;-70
2022/04/22 03:12:45;;;;;;;31.08;26.88;;;;;;;10.39;100.00;100018.50;5051783;28;20471;-70
2022/04/22 03:15:10;;;;;;;30.55;27.08;;;;;;;10.56;100.00;100007.91;5051935;28;20029;-71
2022/04/22 03:17:36;;;;;;;29.75;25.92;;;;;;;10.18;100.00;99958.09;5033879;28;20491;-71
2022/04/22 03:20:01;;;;;;;27.52;23.90;;;;;;;10.70;100.00;100005.78;5051775;28;20021;-72
2022/04/22 03:22:26;;;;;;;28.30;25.27;;;;;;;10.41;100.00;100016.75;5050561;28;20029;-71
2022/04/22 03:24:52;;;;;;;31.65;28.25;;;;;;;10.12;100.00;100007.34;5071028;28;20027;-71
2022/04/22 03:27:18;;;;;;;32.42;27.00;;;;;;;9.99;100.00;99955.19;5070914;28;20032;-71
2022/04/22 03:29:43;;;;;;;30.30;27.13;;;;;;;10.14;100.00;99942.09;5059750;28;20032;-71
2022/04/22 03:32:10;;;;;;;30.85;26.63;;;;;;;9.96;100.00;99944.28;5057606;28;20032;-71
2022/04/22 03:34:36;;;;;;;25.58;22.92;;;;;;;10.01;100.00;99991.53;5054834;28;20021;-73
2022/04/22 03:37:01;;;;;;;28.00;25.15;;;;;;;9.90;100.00;99996.06;5051576;28;20409;-71
2022/04/22 03:39:27;;;;;;;28.23;24.20;;;;;;;9.68;100.00;99935.69;5068517;28;20032;-71
2022/04/22 03:41:52;;;;;;;27.25;24.42;;;;;;;10.09;100.00;99991.31;5066373;28;20025;-72
2022/04/22 03:44:18;;;;;;;26.95;24.05;;;;;;;9.97;100.00;99977.25;5070902;28;20025;-72
2022/04/22 03:46:43;;;;;;;27.15;24.33;;;;;;;9.57;100.00;99938.47;5059681;28;20481;-72
2022/04/22 03:49:09;;;;;;;27.45;24.55;;;;;;;9.46;100.00;99912.56;5067365;28;20025;-72
2022/04/22 03:51:35;;;;;;;26.70;23.90;;;;;;;9.49;100.00;99923.44;5071465;28;20063;-71
2022/04/22 03:54:01;;;;;;;27.73;24.77;;;;;;;9.77;100.00;99956.59;5070410;28;20033;-70
2022/04/22 03:59:11;;;;;;;28.95;24.65;;;;;;;9.54;100.00;99903.03;5067153;28;20440;-72
2022/04/22 04:01:36;;;;;;;29.42;25.75;;;;;;;10.04;100.00;99973.66;5069077;28;20021;-71
2022/04/22 04:04:01;;;;;;;29.30;26.13;;;;;;;10.10;100.00;99998.94;5070857;28;20025;-72
2022/04/22 04:06:27;;;;;;;35.83;31.83;;;;;;;10.06;100.00;99968.56;5052732;28;20041;-71
2022/04/22 04:17:05;;;;;;;32.83;29.17;;;;;;;10.06;100.00;100010.00;5070345;28;20460;-71
2022/04/22 04:24:58;;;;;;;33.58;28.40;;;;;;;10.04;100.00;99976.19;5070327;28;20108;-71
2022/04/22 04:27:23;;;;;;;31.35;26.52;;;;;;;10.12;100.00;99999.72;5070202;28;20033;-72
2022/04/22 04:29:48;;;;;;;30.77;27.42;;;;;;;9.97;100.00;100015.31;5070336;28;20405;-71
2022/04/22 04:32:15;;;;;;;33.25;29.65;;;;;;;10.21;100.00;100014.75;5070584;28;20497;-72
2022/04/22 04:34:40;;;;;;;34.13;30.42;;;;;;;10.21;100.00;99991.88;5070199;28;20047;-71
2022/04/22 04:37:07;;;;;;;30.20;27.00;;;;;;;10.34;100.00;99994.91;5070470;28;20430;-69
2022/04/22 04:39:32;;;;;;;30.27;26.63;;;;;;;10.20;100.00;99976.69;5052209;28;20040;-70
2022/04/22 04:41:58;;;;;;;31.20;27.83;;;;;;;10.15;100.00;99946.31;5069853;28;20154;-70
2022/04/22 04:44:25;;;;;;;33.30;29.20;;;;;;;10.08;100.00;99956.66;5070047;28;20047;-70
2022/04/22 04:46:51;;;;;;;31.98;27.83;;;;;;;10.57;100.00;100002.75;5052170;28;20578;-70
2022/04/22 04:49:16;;;;;;;31.27;27.92;;;;;;;10.32;100.00;99974.63;5070493;28;20085;-70
2022/04/22 04:51:41;;;;;;;31.50;27.95;;;;;;;10.05;100.00;99942.31;5070088;28;20117;-70
2022/04/22 04:54:07;;;;;;;31.73;28.42;;;;;;;10.19;100.00;99929.28;5070307;28;20410;-69
2022/04/22 04:56:32;;;;;;;37.35;32.63;;;;;;;10.45;100.00;100003.94;5052075;28;20024;-70
2022/04/22 04:58:57;;;;;;;38.40;33.60;;;;;;;10.08;100.00;99946.50;5069660;28;20028;-70
2022/04/22 05:01:23;;;;;;;38.03;32.78;;;;;;;10.45;100.00;100003.94;5068999;28;20040;-70
2022/04/22 05:03:48;;;;;;;34.38;30.50;;;;;;;9.56;100.00;99909.75;5069951;28;20040;-70
2022/04/22 05:06:14;;;;;;;35.17;29.83;;;;;;;10.60;100.00;100001.84;5070374;28;20514;-69
2022/04/22 05:08:39;;;;;;;33.90;29.88;;;;;;;10.21;100.00;99996.97;5070265;28;20033;-70
2022/04/22 05:11:04;;;;;;;31.83;27.50;;;;;;;10.07;100.00;99935.50;5070294;28;20686;-70
2022/04/22 05:13:30;;;;;;;30.42;26.98;;;;;;;10.75;100.00;100026.84;5069885;28;20037;-69
2022/04/22 05:15:57;;;;;;;33.70;29.02;;;;;;;10.26;100.00;99944.31;5069946;28;20032;-70
2022/04/22 05:18:23;;;;;;;32.47;28.98;;;;;;;10.31;100.00;99974.69;5052395;28;20500;-69
2022/04/22 05:20:49;;;;;;;34.05;30.35;;;;;;;10.63;100.00;100028.00;5070007;28;20024;-70
2022/04/22 05:23:14;;;;;;;34.00;30.17;;;;;;;10.32;100.00;99969.53;5051850;28;20418;-70
2022/04/22 05:25:40;;;;;;;35.28;30.58;;;;;;;10.43;100.00;100018.41;5069143;28;20032;-72
2022/04/22 05:28:06;;;;;;;36.25;31.70;;;;;;;10.51;100.00;100033.44;5082962;28;20039;-71
2022/04/22 05:33:15;;;;;;;37.15;31.92;;;;;;;10.53;100.00;100013.88;5064561;28;20083;-71
2022/04/22 05:35:42;;;;;;;35.72;31.48;;;;;;;10.72;100.00;100009.94;5077623;28;20473;-70
2022/04/22 05:38:08;;;;;;;34.05;30.35;;;;;;;10.89;100.00;100005.25;5078055;28;20032;-70
2022/04/22 05:40:38;;;;;;;31.50;28.10;;;;;;;10.79;100.00;99987.75;5081295;28;20028;-70
2022/04/22 05:43:08;;;;;;;34.50;30.75;;;;;;;11.15;100.00;100063.81;5080104;28;20093;-71
2022/04/22 05:45:36;;;;;;;46.10;39.22;;;;;;;10.96;100.00;100072.00;5083179;28;20049;-71
2022/04/22 05:48:02;;;;;;;47.05;40.63;;;;;;;10.60;100.00;100014.56;5064587;28;20094;-70
2022/04/22 05:50:28;;;;;;;41.50;36.95;;;;;;;10.56;100.00;100018.88;5085344;28;20032;-71
2022/04/22 05:52:55;;;;;;;41.22;32.03;;;;;;;10.41;100.00;100017.59;5081824;28;20062;-71
2022/04/22 05:55:23;;;;;;;38.33;33.20;;;;;;;10.49;100.00;100030.09;5068963;28;20057;-70
2022/04/22 05:57:49;;;;;;;34.40;28.98;;;;;;;10.45;100.00;100070.00;5075015;28;20024;-71
2022/04/22 06:00:18;;;;;;;31.33;27.98;;;;;;;10.65;100.00;100061.03;5075274;28;20479;-71
2022/04/22 06:02:44;;;;;;;36.30;30.08;;;;;;;10.39;100.00;100016.81;5067246;28;20422;-70
2022/04/22 06:05:11;;;;;;;39.95;31.98;;;;;;;10.40;100.00;100010.84;5053094;28;20036;-70
2022/04/22 06:07:38;;;;;;;35.60;29.65;;;;;;;10.72;100.00;100048.09;5054549;28;20105;-70
2022/04/22 06:12:49;;;;;;;37.10;30.25;;;;;;;10.79;100.00;100061.47;5063386;28;20079;-73
2022/04/22 06:15:14;;;;;;;34.80;30.98;;;;;;;10.77;100.00;100043.72;5070923;28;20026;-70
2022/04/22 06:17:40;;;;;;;38.00;31.10;;;;;;;10.24;100.00;99963.03;5054814;28;20031;-71
2022/04/22 06:20:06;;;;;;;34.13;29.92;;;;;;;10.68;100.00;100012.63;5072520;28;20189;-71
2022/04/22 06:22:31;;;;;;;34.15;29.65;;;;;;;10.39;100.00;100013.44;5072653;28;20039;-70
2022/04/22 06:24:57;;;;;;;41.38;33.42;;;;;;;10.48;100.00;100042.84;5072582;28;20390;-71
2022/04/22 06:27:37;;;;;;;56.33;45.13;;;;;;;10.37;100.00;99980.44;5072822;28;20153;-71
2022/04/22 06:30:09;;;;;;;44.88;37.22;;;;;;;10.86;100.00;100099.41;5054799;28;20033;-71
2022/04/22 06:32:36;;;;;;;41.63;37.08;;;;;;;10.72;100.00;100027.75;5072630;28;20038;-71
2022/04/22 06:35:03;;;;;;;61.33;50.15;;;;;;;10.47;100.00;99988.63;5072487;28;20038;-70
2022/04/22 06:37:36;;;;;;;70.20;53.22;;;;;;;11.07;100.00;100092.91;5070048;28;20032;-72
2022/04/22 06:45:48;;;;;;;124.80;89.97;;;;;;;11.33;100.00;100086.19;5072469;28;20105;-70
2022/04/22 06:48:14;;;;;;;121.45;85.50;;;;;;;11.36;100.00;100097.97;5072317;28;20123;-70
2022/04/22 06:50:41;;;;;;;56.30;45.10;;;;;;;11.17;100.00;100076.50;5071943;28;20558;-70
2022/04/22 06:53:07;;;;;;;50.88;41.63;;;;;;;11.33;100.00;100080.25;5071794;28;20379;-71
2022/04/22 06:55:34;;;;;;;43.92;38.40;;;;;;;11.33;100.00;100093.81;5069247;28;20032;-70
2022/04/22 06:58:00;;;;;;;46.00;36.80;;;;;;;11.57;100.00;100092.25;5060514;28;20036;-72
2022/04/22 07:00:26;;;;;;;48.00;38.95;;;;;;;11.64;100.00;100108.19;5064751;28;20025;-72
2022/04/22 07:02:52;;;;;;;47.60;37.47;;;;;;;11.43;100.00;100053.63;5072096;28;20501;-71
2022/04/22 07:05:18;;;;;;;51.28;40.83;;;;;;;11.33;100.00;100058.19;5072428;28;20025;-71
2022/04/22 07:07:44;;;;;;;59.22;45.60;;;;;;;11.43;100.00;100083.38;5071779;28;20040;-71
2022/04/22 07:10:09;;;;;;;54.38;42.40;;;;;;;11.09;100.00;100032.63;5071828;28;20032;-72
2022/04/22 07:12:36;;;;;;;43.45;37.08;;;;;;;10.94;100.00;100040.69;5071692;28;20025;-71
2022/04/22 07:15:06;;;;;;;43.35;35.95;;;;;;;11.32;100.00;100076.88;5071568;28;20036;-71
2022/04/22 07:17:36;;;;;;;41.75;36.28;;;;;;;11.34;100.00;100084.47;5071522;28;20486;-71
2022/04/22 07:20:09;;;;;;;39.13;33.83;;;;;;;10.99;100.00;100036.31;5071429;28;20111;-72
2022/04/22 07:22:36;;;;;;;39.45;32.30;;;;;;;11.22;100.00;100089.91;5071254;28;20147;-73
2022/04/22 07:25:02;;;;;;;33.33;29.83;;;;;;;10.87;100.00;100016.31;5052374;28;20410;-72
2022/04/22 07:27:28;;;;;;;33.90;30.10;;;;;;;11.29;100.00;100093.94;5071381;28;20047;-72
2022/04/22 07:29:58;;;;;;;34.05;29.17;;;;;;;10.88;100.00;100028.16;5071185;28;20024;-72
2022/04/22 07:32:25;;;;;;;36.35;31.00;;;;;;;11.24;100.00;100085.63;5071616;28;20028;-72
2022/04/22 07:34:51;;;;;;;34.95;28.05;;;;;;;11.00;100.00;100081.22;5070944;28;20025;-71
2022/04/22 07:37:18;;;;;;;35.08;28.17;;;;;;;11.24;100.00;100067.81;5071074;28;20032;-71
2022/04/22 07:39:43;;;;;;;33.40;28.25;;;;;;;10.66;100.00;99999.94;5071279;28;20024;-72
2022/04/22 07:42:18;;;;;;;30.23;26.95;;;;;;;10.84;100.00;100007.06;5071261;28;20073;-71
2022/04/22 07:47:36;;;;;;;30.95;27.60;;;;;;;11.41;100.00;100040.13;5070654;28;20094;-70
2022/04/22 07:50:05;;;;;;;29.92;26.08;;;;;;;11.30;100.00;100049.81;5053270;28;20476;-71
2022/04/22 07:52:34;;;;;;;30.35;26.83;;;;;;;11.35;100.00;100004.69;5071192;28;20031;-72
2022/04/22 07:55:01;;;;;;;33.33;29.08;;;;;;;11.31;100.00;99982.75;5047777;28;20025;-72
2022/04/22 07:57:27;;;;;;;28.55;25.45;;;;;;;11.10;100.00;99976.63;5070813;28;20474;-72
2022/04/22 07:59:53;;;;;;;30.50;26.08;;;;;;;11.31;100.00;100001.41;5070960;28;20028;-73
2022/04/22 08:02:18;;;;;;;34.50;28.23;;;;;;;11.18;100.00;99945.84;5052859;28;20456;-72
2022/04/22 08:04:44;;;;;;;30.83;25.67;;;;;;;11.59;100.00;99998.03;5070746;28;20029;-73
2022/04/22 08:07:09;;;;;;;32.83;26.58;;;;;;;11.58;100.00;99971.72;5052937;28;20032;-71
2022/04/22 08:09:35;;;;;;;26.73;22.80;;;;;;;11.64;100.00;99986.78;5070674;28;20119;-72
2022/04/22 08:12:01;;;;;;;27.00;24.08;;;;;;;11.90;100.00;99956.25;5070885;28;20104;-72
2022/04/22 08:14:27;;;;;;;30.73;25.17;;;;;;;11.67;100.00;99873.84;5070800;28;20052;-72
2022/04/22 08:16:56;;;;;;;26.08;23.35;;;;;;;11.97;100.00;99941.56;5071024;28;20322;-73
2022/04/22 08:19:21;;;;;;;27.15;24.15;;;;;;;11.82;100.00;99842.75;5071280;28;20024;-73
2022/04/22 08:21:47;;;;;;;26.75;23.70;;;;;;;12.33;100.00;99931.81;5062293;28;20028;-72
2022/04/22 08:24:12;;;;;;;23.73;19.98;;;;;;;12.12;100.00;99952.06;5064307;28;20039;-70
2022/04/22 08:26:38;;;;;;;24.27;21.15;;;;;;;12.51;100.00;99971.94;5069435;28;20044;-72
2022/04/22 08:29:04;;;;;;;25.40;22.17;;;;;;;12.30;100.00;99893.69;5070637;28;20116;-72
2022/04/22 08:31:29;;;;;;;24.80;20.80;;;;;;;12.02;100.00;99855.63;5069739;28;20029;-72
2022/04/22 08:33:57;;;;;;;24.15;20.30;;;;;;;12.70;100.00;99919.34;5070237;28;20497;-71
2022/04/22 08:36:27;;;;;;;24.08;21.50;;;;;;;12.85;100.00;99942.59;5070436;28;20029;-72
2022/04/22 08:38:53;;;;;;;26.33;23.63;;;;;;;12.79;100.00;99911.38;5070116;28;20032;-73
2022/04/22 08:41:21;;;;;;;24.98;22.17;;;;;;;12.79;100.00;99901.16;5070849;28;20470;-74
2022/04/22 08:43:47;;;;;;;24.90;22.33;;;;;;;13.16;100.00;99952.47;5069179;28;20028;-73
2022/04/22 08:51:43;;;;;;;26.33;23.23;;;;;;;12.92;100.00;99938.06;5070647;28;20040;-73
2022/04/22 08:54:09;;;;;;;29.35;23.33;;;;;;;13.21;100.00;99965.88;5070311;28;20032;-72
2022/04/22 08:56:36;;;;;;;24.02;21.40;;;;;;;13.07;100.00;99940.09;5060301;28;20037;-71
2022/04/22 08:59:04;;;;;;;26.40;20.48;;;;;;;13.40;100.00;99951.53;5049113;28;20029;-71
2022/04/22 09:01:30;;;;;;;24.15;21.55;;;;;;;12.82;100.00;99931.66;5049602;28;20067;-72
2022/04/22 09:03:55;;;;;;;27.40;21.90;;;;;;;12.96;100.00;99920.03;5049477;28;20068;-72
2022/04/22 09:06:23;;;;;;;25.98;21.83;;;;;;;13.32;100.00;99971.41;5050198;28;20418;-71
2022/04/22 09:08:50;;;;;;;26.98;22.02;;;;;;;13.33;100.00;99967.97;5052473;28;20402;-71
2022/04/22 09:11:16;;;;;;;28.02;22.98;;;;;;;13.47;100.00;99981.03;5067663;28;20474;-70
2022/04/22 09:13:41;;;;;;;23.17;20.20;;;;;;;12.69;100.00;99904.97;5051970;28;20040;-70
2022/04/22 09:16:08;;;;;;;22.58;19.67;;;;;;;12.83;100.00;99928.22;5074026;28;20085;-70
2022/04/22 09:18:37;;;;;;;22.13;19.77;;;;;;;12.72;100.00;99884.41;5073462;28;20507;-69
2022/04/22 09:21:06;;;;;;;24.42;20.98;;;;;;;13.18;100.00;99937.09;5055626;28;20386;-70
2022/04/22 09:23:34;;;;;;;21.30;18.90;;;;;;;13.13;100.00;99916.03;5073667;28;20032;-73
2022/04/22 09:26:02;;;;;;;21.23;18.27;;;;;;;13.39;100.00;99969.47;5073957;28;20024;-73
2022/04/22 09:28:27;;;;;;;21.85;19.48;;;;;;;13.60;100.00;99955.81;5071971;28;20040;-71
2022/04/22 09:30:57;;;;;;;20.20;18.10;;;;;;;13.51;100.00;99974.09;5055426;28;20025;-71
2022/04/22 09:33:23;;;;;;;23.92;18.83;;;;;;;13.69;100.00;99968.22;5073685;28;20033;-73
2022/04/22 09:44:23;;;;;;;20.00;16.75;;;;;;;14.19;100.00;99999.34;5073644;28;20547;-72
2022/04/22 09:46:49;;;;;;;22.83;18.10;;;;;;;14.22;100.00;99978.78;5073257;28;20064;-71
2022/04/22 09:49:38;;;;;;;24.33;18.55;;;;;;;14.43;100.00;99988.09;5072726;28;20058;-70
2022/04/22 09:52:08;;;;;;;21.38;17.88;;;;;;;14.61;100.00;99928.44;5053585;28;20047;-71
2022/04/22 09:54:33;;;;;;;19.77;17.85;;;;;;;14.38;100.00;99939.69;5072463;28;20028;-71
2022/04/22 09:57:00;;;;;;;19.75;17.67;;;;;;;14.98;100.00;99982.19;5072747;28;20029;-71
2022/04/22 09:59:32;;;;;;;22.58;17.85;;;;;;;16.28;100.00;99983.53;5072530;28;20020;-71
2022/04/22 10:01:59;;;;;;;18.65;16.77;;;;;;;15.76;100.00;99981.91;5072193;28;20453;-72
2022/04/22 10:04:24;;;;;;;19.17;16.67;;;;;;;16.14;100.00;99955.19;5072640;28;20060;-72
2022/04/22 10:06:50;;;;;;;18.52;15.82;;;;;;;16.29;100.00;99987.72;5072718;28;20091;-72
2022/04/22 10:09:16;;;;;;;20.08;15.98;;;;;;;15.81;100.00;99956.84;5072449;28;20056;-72
2022/04/22 10:11:44;;;;;;;18.48;15.38;;;;;;;16.85;100.00;99990.78;5054928;28;20033;-72
2022/04/22 10:14:11;;;;;;;16.85;13.13;;;;;;;16.94;100.00;99964.59;5073301;28;20051;-71
2022/04/22 10:16:37;;;;;;;13.93;12.50;;;;;;;17.11;100.00;99961.09;5073092;28;20123;-73
2022/04/22 10:19:03;;;;;;;16.23;13.20;;;;;;;17.48;100.00;99994.13;5072995;28;20040;-72
2022/04/22 10:21:29;;;;;;;14.45;12.68;;;;;;;16.91;100.00;99997.31;5072787;28;20028;-72
2022/04/22 10:23:58;;;;;;;18.00;14.05;;;;;;;17.38;100.00;99987.00;5054007;28;20399;-72
2022/04/22 10:26:28;;;;;;;15.38;13.85;;;;;;;18.05;100.00;99948.84;5053262;28;20086;-77
2022/04/22 10:28:54;;;;;;;15.82;14.15;;;;;;;18.32;100.00;99977.25;5053243;28;20025;-72
2022/04/22 10:31:22;;;;;;;12.52;11.23;;;;;;;18.34;100.00;99985.72;5053057;28;20025;-72
2022/04/22 10:33:48;;;;;;;11.68;10.07;;;;;;;17.50;100.00;99991.50;5052877;28;20177;-73
2022/04/22 10:36:18;;;;;;;13.13;10.32;;;;;;;17.92;100.00;99976.19;5052801;28;20078;-74
2022/04/22 10:38:50;;;;;;;12.15;10.82;;;;;;;18.54;100.00;99960.44;5053376;28;20033;-75
2022/04/22 10:41:20;;;;;;;13.98;11.82;;;;;;;18.76;100.00;99977.97;5053043;28;20163;-75
2022/04/22 10:47:13;;;;;;;11.52;10.30;;;;;;;17.97;100.00;99917.56;5053121;28;20092;-74
2022/04/22 10:49:16;;;;;;;12.15;10.95;;;;;;;18.23;100.00;99937.44;5068303;28;20050;-73
2022/04/22 10:52:09;;;;;;;13.07;11.88;;;;;;;17.86;100.00;99963.69;5071998;28;20484;-71
2022/04/22 10:54:53;;;;;;;13.52;12.13;;;;;;;19.30;100.00;99971.97;5069816;28;20395;-70
2022/04/22 10:57:27;;;;;;;13.95;12.35;;;;;;;18.60;100.00;99957.50;5033081;28;20037;-71
2022/04/22 11:00:27;;;;;;;12.48;11.27;;;;;;;18.47;100.00;99909.41;5051942;28;20465;-72
2022/04/22 11:03:01;;;;;;;13.20;11.00;;;;;;;18.61;100.00;99953.19;5052227;28;20048;-70
2022/04/22 11:05:30;;;;;;;13.65;11.75;;;;;;;19.17;100.00;99954.81;5050377;28;20064;-71
2022/04/22 11:07:56;;;;;;;12.70;10.40;;;;;;;19.29;100.00;99960.03;5034266;28;20029;-69
2022/04/22 11:10:29;;;;;;;11.27;10.00;;;;;;;17.86;100.00;99917.41;5052091;28;20037;-72
2022/04/22 11:12:57;;;;;;;11.00;9.90;;;;;;;18.31;100.00;99918.97;5050975;28;20095;-70
2022/04/22 11:15:46;;;;;;;10.07;9.02;;;;;;;19.99;100.00;99948.50;5071343;28;20032;-70
2022/04/22 11:18:13;;;;;;;10.27;8.75;;;;;;;19.68;100.00;99969.53;5069749;28;20556;-70
2022/04/22 11:20:45;;;;;;;12.68;8.82;;;;;;;19.05;100.00;99903.09;5069837;28;20558;-69
2022/04/22 11:23:14;;;;;;;10.55;8.70;;;;;;;19.22;100.00;99935.53;5051552;28;20029;-70
2022/04/22 11:25:44;;;;;;;10.85;9.25;;;;;;;18.19;100.00;99893.06;5070173;28;20033;-69
2022/04/22 11:28:10;;;;;;;12.60;9.98;;;;;;;18.94;100.00;99912.44;5070049;28;20028;-72
2022/04/22 11:30:36;;;;;;;12.10;10.90;;;;;;;19.16;100.00;99879.22;5063951;28;20024;-71
2022/04/22 11:33:23;;;;;;;12.18;9.70;;;;;;;18.85;100.00;99941.38;5058825;28;20083;-69
2022/04/22 11:35:53;;;;;;;11.27;9.25;;;;;;;18.86;100.00;99938.69;5049647;28;20037;-69
2022/04/22 11:38:18;;;;;;;11.02;9.88;;;;;;;18.73;100.00;99839.09;5059978;28;20039;-69
2022/04/22 11:40:47;;;;;;;14.13;10.45;;;;;;;19.37;100.00;99834.00;5053351;28;20461;-69
2022/04/22 11:43:14;;;;;;;11.93;9.93;;;;;;;19.15;100.00;99892.22;5049455;28;20060;-69
2022/04/22 11:45:42;;;;;;;12.13;9.63;;;;;;;19.00;100.00;99865.66;5050821;28;20064;-70
2022/04/22 11:48:11;;;;;;;12.18;10.02;;;;;;;19.26;100.00;99918.94;5050829;28;20064;-73
2022/04/22 11:50:42;;;;;;;17.15;13.45;;;;;;;19.19;100.00;99881.59;5061446;28;20047;-70
2022/04/22 11:53:20;;;;;;;14.05;10.85;;;;;;;19.80;100.00;99868.09;5038588;28;20139;-72
2022/04/22 11:55:47;;;;;;;10.40;9.07;;;;;;;19.12;100.00;99876.94;5050349;28;20031;-69
2022/04/22 11:58:20;;;;;;;14.50;11.77;;;;;;;19.26;100.00;99889.75;5052666;28;20045;-68
2022/04/22 12:06:18;;;;;;;11.15;9.98;;;;;;;20.23;100.00;99853.91;5050906;28;20052;-69
2022/04/22 12:08:53;;;;;;;11.05;9.10;;;;;;;20.09;100.00;99872.09;5050631;28;20568;-69
2022/04/22 12:11:19;;;;;;;10.30;9.20;;;;;;;19.40;100.00;99840.72;5050927;28;20028;-69
2022/04/22 12:13:49;;;;;;;12.63;9.20;;;;;;;19.76;100.00;99818.44;5050543;28;20028;-68
2022/04/22 12:16:22;;;;;;;11.98;9.32;;;;;;;19.18;100.00;99794.88;5050234;28;20086;-70
2022/04/22 12:18:49;;;;;;;10.73;8.48;;;;;;;19.46;100.00;99836.00;5050726;28;20087;-69